createdAt,value
2023-04-20T00:00:48.055Z,5.93
2023-04-20T00:03:18.465Z,7.37
2023-04-20T00:05:52.108Z,5.70
2023-04-20T00:08:20.148Z,7.23
2023-04-20T00:10:50.669Z,7.27
2023-04-20T00:13:19.377Z,6.30
2023-04-20T00:15:51.415Z,11.20
2023-04-20T00:18:22.383Z,8.67
2023-04-20T00:20:51.870Z,7.87
2023-04-20T00:23:22.744Z,5.17
2023-04-20T00:25:57.118Z,8.37
2023-04-20T00:28:27.637Z,5.97
2023-04-20T00:30:58.917Z,7.17
2023-04-20T00:33:30.192Z,9.20
2023-04-20T00:35:58.562Z,12.47
2023-04-20T00:38:28.073Z,6.90
2023-04-20T00:40:58.880Z,6.90
2023-04-20T00:43:29.075Z,5.50
2023-04-20T00:46:04.884Z,5.07
2023-04-20T00:48:35.184Z,7.60
2023-04-20T00:51:07.874Z,7.23
2023-04-20T00:53:38.055Z,6.30
2023-04-20T00:56:06.447Z,7.47
2023-04-20T00:58:46.682Z,6.90
2023-04-20T01:01:18.645Z,9.23
2023-04-20T01:03:47.546Z,5.60
2023-04-20T01:06:18.578Z,8.47
2023-04-20T01:08:54.574Z,8.23
2023-04-20T01:11:28.690Z,6.67
2023-04-20T01:13:56.443Z,6.67
2023-04-20T01:16:25.691Z,7.83
2023-04-20T01:18:53.907Z,7.00
2023-04-20T01:21:23.767Z,6.70
2023-04-20T01:23:55.901Z,6.67
2023-04-20T01:26:25.769Z,7.73
2023-04-20T01:28:54.517Z,5.57
2023-04-20T01:31:24.276Z,7.63
2023-04-20T01:33:53.775Z,6.37
2023-04-20T01:36:25.899Z,5.30
2023-04-20T01:38:55.907Z,7.30
2023-04-20T01:41:26.311Z,8.30
2023-04-20T01:43:57.631Z,8.17
2023-04-20T01:46:26.235Z,5.83
2023-04-20T01:48:54.539Z,7.20
2023-04-20T01:51:32.992Z,8.77
2023-04-20T01:54:02.759Z,8.00
2023-04-20T01:56:35.421Z,6.17
2023-04-20T01:59:04.571Z,7.67
2023-04-20T02:01:32.979Z,6.80
2023-04-20T02:04:01.614Z,8.00
2023-04-20T02:06:33.408Z,9.37
2023-04-20T02:09:05.520Z,9.53
2023-04-20T02:11:35.470Z,10.07
2023-04-20T02:14:03.644Z,5.80
2023-04-20T02:16:33.697Z,10.37
2023-04-20T02:19:05.006Z,5.33
2023-04-20T02:21:34.056Z,7.00
2023-04-20T02:24:06.722Z,6.70
2023-04-20T02:26:37.521Z,7.37
2023-04-20T02:29:06.344Z,8.23
2023-04-20T02:31:34.725Z,6.53
2023-04-20T02:34:03.680Z,10.27
2023-04-20T02:36:42.348Z,7.60
2023-04-20T02:39:12.864Z,8.43
2023-04-20T02:41:46.281Z,6.00
2023-04-20T02:44:14.356Z,6.47
2023-04-20T02:46:43.106Z,8.20
2023-04-20T02:49:11.103Z,10.23
2023-04-20T02:51:41.964Z,7.30
2023-04-20T02:54:12.042Z,9.63
2023-04-20T02:56:40.084Z,9.80
2023-04-20T02:59:08.511Z,10.33
2023-04-20T03:01:37.714Z,7.60
2023-04-20T03:04:06.640Z,8.63
2023-04-20T03:06:38.632Z,6.37
2023-04-20T03:09:07.849Z,7.60
2023-04-20T03:11:38.551Z,9.50
2023-04-20T03:14:11.454Z,7.57
2023-04-20T03:16:41.978Z,6.77
2023-04-20T03:19:10.683Z,7.53
2023-04-20T03:21:38.922Z,9.30
2023-04-20T03:24:07.362Z,8.47
2023-04-20T03:26:48.220Z,8.37
2023-04-20T03:29:18.408Z,6.80
2023-04-20T03:31:47.088Z,6.97
2023-04-20T03:34:19.063Z,7.47
2023-04-20T03:36:50.079Z,9.67
2023-04-20T03:39:20.228Z,8.83
2023-04-20T03:41:50.580Z,11.70
2023-04-20T03:44:20.522Z,11.03
2023-04-20T03:46:51.142Z,7.73
2023-04-20T03:49:22.532Z,9.97
2023-04-20T03:51:50.761Z,10.23
2023-04-20T03:54:18.863Z,8.03
2023-04-20T03:56:55.761Z,6.87
2023-04-20T03:59:28.545Z,12.50
2023-04-20T04:02:00.695Z,10.37
2023-04-20T04:04:29.027Z,8.23
2023-04-20T04:07:03.077Z,8.57
2023-04-20T04:09:32.528Z,9.87
2023-04-20T04:12:01.402Z,10.03
2023-04-20T04:14:36.249Z,11.67
2023-04-20T04:17:07.784Z,11.03
2023-04-20T04:19:37.925Z,7.47
2023-04-20T04:22:08.261Z,8.93
2023-04-20T04:24:38.514Z,8.43
2023-04-20T04:27:07.006Z,9.10
2023-04-20T04:29:39.050Z,13.73
2023-04-20T04:32:14.807Z,12.27
2023-04-20T04:34:50.099Z,10.30
2023-04-20T04:37:18.115Z,8.63
2023-04-20T04:39:48.396Z,10.67
2023-04-20T04:42:16.574Z,7.17
2023-04-20T04:44:52.232Z,13.20
2023-04-20T04:47:31.871Z,13.23
2023-04-20T04:50:06.195Z,8.53
2023-04-20T04:52:40.481Z,7.77
2023-04-20T04:55:13.857Z,10.00
2023-04-20T04:57:49.716Z,9.57
2023-04-20T05:00:24.027Z,9.47
2023-04-20T05:02:53.482Z,10.43
2023-04-20T05:05:28.517Z,10.80
2023-04-20T05:08:00.483Z,8.53
2023-04-20T05:10:28.260Z,7.93
2023-04-20T05:12:59.705Z,8.47
2023-04-20T05:15:31.981Z,7.90
2023-04-20T05:18:04.608Z,8.40
2023-04-20T05:20:33.832Z,7.40
2023-04-20T05:23:07.122Z,10.37
2023-04-20T05:25:40.597Z,8.20
2023-04-20T05:28:14.849Z,13.47
2023-04-20T05:30:44.829Z,9.57
2023-04-20T05:33:18.797Z,10.47
2023-04-20T05:35:46.614Z,7.30
2023-04-20T05:38:17.692Z,11.17
2023-04-20T05:40:47.236Z,9.13
2023-04-20T05:43:15.786Z,6.70
2023-04-20T05:45:47.973Z,10.33
2023-04-20T05:48:17.561Z,11.67
2023-04-20T05:50:47.148Z,9.37
2023-04-20T05:53:15.075Z,7.80
2023-04-20T05:55:46.314Z,10.80
2023-04-20T05:58:19.850Z,14.07
2023-04-20T06:00:54.942Z,8.40
2023-04-20T06:03:28.186Z,11.10
2023-04-20T06:05:59.487Z,10.93
2023-04-20T06:08:31.637Z,9.33
2023-04-20T06:11:05.283Z,9.43
2023-04-20T06:13:36.155Z,8.23
2023-04-20T06:16:11.162Z,8.20
2023-04-20T06:18:40.563Z,9.87
2023-04-20T06:21:13.984Z,9.80
2023-04-20T06:23:42.775Z,11.33
2023-04-20T06:26:11.019Z,13.00
2023-04-20T06:28:41.873Z,8.47
2023-04-20T06:31:13.364Z,12.40
2023-04-20T06:33:41.335Z,15.10
2023-04-20T06:36:09.327Z,11.13
2023-04-20T06:38:37.174Z,9.10
2023-04-20T06:41:07.764Z,12.60
2023-04-20T06:43:36.819Z,12.73
2023-04-20T06:46:07.207Z,13.20
2023-04-20T06:48:46.867Z,9.17
2023-04-20T06:51:15.548Z,12.83
2023-04-20T06:53:46.536Z,19.90
2023-04-20T06:56:17.162Z,11.60
2023-04-20T06:58:45.682Z,10.10
2023-04-20T07:01:14.959Z,9.97
2023-04-20T07:03:46.987Z,11.53
2023-04-20T07:06:17.535Z,12.87
2023-04-20T07:08:46.958Z,10.50
2023-04-20T07:11:31.772Z,12.53
2023-04-20T07:14:01.795Z,13.33
2023-04-20T07:16:33.890Z,10.83
2023-04-20T07:19:05.538Z,11.87
2023-04-20T07:21:33.632Z,12.10
2023-04-20T07:24:04.144Z,13.30
2023-04-20T07:26:35.121Z,10.10
2023-04-20T07:29:06.748Z,12.90
2023-04-20T07:31:35.625Z,10.03
2023-04-20T07:34:06.977Z,12.27
2023-04-20T07:36:35.583Z,12.17
2023-04-20T07:39:08.581Z,19.80
2023-04-20T07:41:37.617Z,13.13
2023-04-20T07:44:06.255Z,15.00
2023-04-20T07:46:34.374Z,12.60
2023-04-20T07:49:03.120Z,15.13
2023-04-20T07:51:37.602Z,11.33
2023-04-20T07:54:07.936Z,13.67
2023-04-20T07:56:36.056Z,14.47
2023-04-20T07:59:04.252Z,11.00
2023-04-20T08:01:35.539Z,11.57
2023-04-20T08:04:03.962Z,12.17
2023-04-20T08:06:40.272Z,12.97
2023-04-20T08:09:11.407Z,15.90
2023-04-20T08:11:41.841Z,15.90
2023-04-20T08:14:10.490Z,14.37
2023-04-20T08:16:38.550Z,12.30
2023-04-20T08:19:10.577Z,13.03
2023-04-20T08:21:42.534Z,17.30
2023-04-20T08:24:15.793Z,13.27
2023-04-20T08:26:45.836Z,14.53
2023-04-20T08:29:17.073Z,18.63
2023-04-20T08:31:44.930Z,16.50
2023-04-20T08:34:17.676Z,12.80
2023-04-20T08:36:47.400Z,15.33
2023-04-20T08:39:20.691Z,11.90
2023-04-20T08:41:52.035Z,15.00
2023-04-20T08:44:20.110Z,14.47
2023-04-20T08:46:51.925Z,14.90
2023-04-20T08:49:24.373Z,15.13
2023-04-20T08:51:54.295Z,15.60
2023-04-20T08:54:27.780Z,13.60
2023-04-20T08:57:01.900Z,13.87
2023-04-20T08:59:31.165Z,10.63
2023-04-20T09:02:09.562Z,12.53
2023-04-20T09:04:37.567Z,16.33
2023-04-20T09:07:13.710Z,18.77
2023-04-20T09:09:43.640Z,16.30
2023-04-20T09:12:16.898Z,13.03
2023-04-20T09:14:50.394Z,12.87
2023-04-20T09:17:20.624Z,12.63
2023-04-20T09:20:08.322Z,13.80
2023-04-20T09:22:39.606Z,14.60
2023-04-20T09:25:16.584Z,14.30
2023-04-20T09:27:44.779Z,15.00
2023-04-20T09:30:16.184Z,11.30
2023-04-20T09:32:44.148Z,12.60
2023-04-20T09:35:23.098Z,17.47
2023-04-20T09:37:55.181Z,13.47
2023-04-20T09:40:32.521Z,19.00
2023-04-20T09:43:06.032Z,14.00
2023-04-20T09:45:34.243Z,11.57
2023-04-20T09:48:07.332Z,21.03
2023-04-20T09:50:48.449Z,13.07
2023-04-20T09:53:23.161Z,14.40
2023-04-20T09:55:55.242Z,13.10
2023-04-20T09:58:24.265Z,12.03
2023-04-20T10:00:54.950Z,13.30
2023-04-20T10:03:28.880Z,12.90
2023-04-20T10:05:57.804Z,17.30
2023-04-20T10:08:29.687Z,12.00
2023-04-20T10:10:58.267Z,12.73
2023-04-20T10:13:36.577Z,11.17
2023-04-20T10:16:05.173Z,11.80
2023-04-20T10:18:33.795Z,12.20
2023-04-20T10:21:09.927Z,12.23
2023-04-20T10:24:03.210Z,14.20
2023-04-20T10:26:39.332Z,13.90
2023-04-20T10:29:10.633Z,14.27
2023-04-20T10:31:42.079Z,11.37
2023-04-20T10:34:12.627Z,13.70
2023-04-20T10:36:43.365Z,12.83
2023-04-20T10:39:21.215Z,12.77
2023-04-20T10:41:55.105Z,15.67
2023-04-20T10:44:28.827Z,12.83
2023-04-20T10:46:59.804Z,13.77
2023-04-20T10:49:29.500Z,17.10
2023-04-20T10:51:57.961Z,13.50
2023-04-20T10:54:29.287Z,16.00
2023-04-20T10:57:01.500Z,14.50
2023-04-20T10:59:33.014Z,12.60
2023-04-20T11:02:02.919Z,14.43
2023-04-20T11:04:32.974Z,16.63
2023-04-20T11:07:08.297Z,14.70
2023-04-20T11:09:43.071Z,12.30
2023-04-20T11:12:23.130Z,15.43
2023-04-20T11:14:58.400Z,12.53
2023-04-20T11:17:34.313Z,15.43
2023-04-20T11:20:11.269Z,13.47
2023-04-20T11:22:40.237Z,16.67
2023-04-20T11:25:16.424Z,14.87
2023-04-20T11:27:45.533Z,14.47
2023-04-20T11:30:17.277Z,14.23
2023-04-20T11:32:56.126Z,11.67
2023-04-20T11:35:27.224Z,12.17
2023-04-20T11:38:00.003Z,10.87
2023-04-20T11:40:30.247Z,11.00
2023-04-20T11:43:01.415Z,12.70
2023-04-20T11:45:36.954Z,8.77
2023-04-20T11:48:10.905Z,10.77
2023-04-20T11:50:41.835Z,11.47
2023-04-20T11:53:15.038Z,12.40
2023-04-20T11:55:44.969Z,12.23
2023-04-20T11:58:15.728Z,12.60
2023-04-20T12:00:44.083Z,9.30
2023-04-20T12:03:12.538Z,11.00
2023-04-20T12:05:43.587Z,12.30
2023-04-20T12:08:22.498Z,10.63
2023-04-20T12:10:58.420Z,10.40
2023-04-20T12:13:27.992Z,11.50
2023-04-20T12:16:01.988Z,11.20
2023-04-20T12:18:32.192Z,15.07
2023-04-20T12:21:01.141Z,15.40
2023-04-20T12:23:34.640Z,8.60
2023-04-20T12:26:20.310Z,8.50
2023-04-20T12:28:57.634Z,10.30
2023-04-20T12:31:26.748Z,8.67
2023-04-20T12:33:55.744Z,9.07
2023-04-20T12:36:28.974Z,10.13
2023-04-20T12:38:57.875Z,13.30
2023-04-20T12:41:33.515Z,11.00
2023-04-20T12:44:10.717Z,12.40
2023-04-20T12:46:39.897Z,12.73
2023-04-20T12:49:12.966Z,13.00
2023-04-20T12:51:49.641Z,12.03
2023-04-20T12:54:20.448Z,11.20
2023-04-20T12:56:54.917Z,11.57
2023-04-20T12:59:25.014Z,12.00
2023-04-20T13:01:54.096Z,12.60
2023-04-20T13:04:25.737Z,11.03
2023-04-20T13:07:08.576Z,13.87
2023-04-20T13:09:38.096Z,12.63
2023-04-20T13:12:12.453Z,11.80
2023-04-20T13:14:41.000Z,10.67
2023-04-20T13:17:09.615Z,12.70
2023-04-20T13:19:41.872Z,12.17
2023-04-20T13:22:14.959Z,11.80
2023-04-20T13:24:46.513Z,9.20
2023-04-20T13:27:19.643Z,13.63
2023-04-20T13:29:50.917Z,12.93
2023-04-20T13:32:21.859Z,12.10
2023-04-20T13:34:51.513Z,12.30
2023-04-20T13:37:20.816Z,13.30
2023-04-20T13:39:50.405Z,9.53
2023-04-20T13:42:24.966Z,13.57
2023-04-20T13:44:57.507Z,14.03
2023-04-20T13:47:31.253Z,12.10
2023-04-20T13:50:09.766Z,12.97
2023-04-20T13:52:38.260Z,15.53
2023-04-20T13:55:13.328Z,11.60
2023-04-20T13:57:43.934Z,17.43
2023-04-20T14:00:12.476Z,13.53
2023-04-20T14:02:42.293Z,10.77
2023-04-20T14:05:15.280Z,11.77
2023-04-20T14:07:43.956Z,12.87
2023-04-20T14:10:13.638Z,13.03
2023-04-20T14:12:44.974Z,11.57
2023-04-20T14:15:16.201Z,13.37
2023-04-20T14:17:51.676Z,11.57
2023-04-20T14:20:24.673Z,13.20
2023-04-20T14:22:55.299Z,13.00
2023-04-20T14:25:23.918Z,11.33
2023-04-20T14:27:57.852Z,12.40
2023-04-20T14:30:30.195Z,12.73
2023-04-20T14:33:02.773Z,13.37
2023-04-20T14:35:31.074Z,16.10
2023-04-20T14:38:02.112Z,12.13
2023-04-20T14:40:32.344Z,10.37
2023-04-20T14:43:02.035Z,14.90
2023-04-20T14:45:32.939Z,8.83
2023-04-20T14:48:03.268Z,13.80
2023-04-20T14:50:32.374Z,14.83
2023-04-20T14:53:03.958Z,14.93
2023-04-20T14:55:33.692Z,12.20
2023-04-20T14:58:09.349Z,13.20
2023-04-20T15:00:39.014Z,13.83
2023-04-20T15:03:13.269Z,11.30
2023-04-20T15:05:43.770Z,13.33
2023-04-20T15:08:12.438Z,13.73
2023-04-20T15:10:41.506Z,13.50
2023-04-20T15:13:12.596Z,13.13
2023-04-20T15:15:48.460Z,13.57
2023-04-20T15:18:18.435Z,13.90
2023-04-20T15:20:54.293Z,13.80
2023-04-20T15:23:25.271Z,14.23
2023-04-20T15:25:54.234Z,13.30
2023-04-20T15:28:25.953Z,13.03
2023-04-20T15:30:59.655Z,19.27
2023-04-20T15:33:28.623Z,10.20
2023-04-20T15:36:05.066Z,16.20
2023-04-20T15:38:33.074Z,12.67
2023-04-20T15:41:03.086Z,18.67
2023-04-20T15:43:32.474Z,20.30
2023-04-20T15:46:00.357Z,19.80
2023-04-20T15:48:32.439Z,16.50
2023-04-20T15:51:02.780Z,16.50
2023-04-20T15:53:34.979Z,14.47
2023-04-20T15:56:06.585Z,13.93
2023-04-20T15:58:38.033Z,15.50
2023-04-20T16:01:06.476Z,13.40
2023-04-20T16:03:35.499Z,14.13
2023-04-20T16:06:04.529Z,17.53
2023-04-20T16:08:36.787Z,11.80
2023-04-20T16:11:10.280Z,15.80
2023-04-20T16:13:41.530Z,12.63
2023-04-20T16:16:12.924Z,16.27
2023-04-20T16:18:43.767Z,14.47
2023-04-20T16:21:13.464Z,13.53
2023-04-20T16:23:41.922Z,11.87
2023-04-20T16:26:14.020Z,15.00
2023-04-20T16:28:47.002Z,14.07
2023-04-20T16:31:18.019Z,14.77
2023-04-20T16:33:48.893Z,18.70
2023-04-20T16:36:18.457Z,16.37
2023-04-20T16:38:50.594Z,14.33
2023-04-20T16:41:22.873Z,12.63
2023-04-20T16:43:54.951Z,12.47
2023-04-20T16:46:26.647Z,15.30
2023-04-20T16:48:57.776Z,14.50
2023-04-20T16:51:30.377Z,19.13
2023-04-20T16:54:01.910Z,15.20
2023-04-20T16:56:31.718Z,14.33
2023-04-20T16:59:17.089Z,14.53
2023-04-20T17:01:48.379Z,15.30
2023-04-20T17:04:18.993Z,16.43
2023-04-20T17:06:49.221Z,13.13
2023-04-20T17:09:23.011Z,17.57
2023-04-20T17:11:53.227Z,17.97
2023-04-20T17:14:24.691Z,15.83
2023-04-20T17:16:56.906Z,15.47
2023-04-20T17:19:25.464Z,15.37
2023-04-20T17:21:57.880Z,14.93
2023-04-20T17:24:29.922Z,15.33
2023-04-20T17:27:01.843Z,15.10
2023-04-20T17:29:38.738Z,16.17
2023-04-20T17:32:10.442Z,15.97
2023-04-20T17:34:42.376Z,16.67
2023-04-20T17:37:12.273Z,17.63
2023-04-20T17:39:42.207Z,18.27
2023-04-20T17:42:13.913Z,13.97
2023-04-20T17:44:50.074Z,13.23
2023-04-20T17:47:20.909Z,16.37
2023-04-20T17:49:49.555Z,14.17
2023-04-20T17:52:22.450Z,14.77
2023-04-20T17:54:51.035Z,15.80
2023-04-20T17:57:22.367Z,14.33
2023-04-20T17:59:56.234Z,13.37
2023-04-20T18:02:29.673Z,16.70
2023-04-20T18:05:01.827Z,16.50
2023-04-20T18:07:32.213Z,12.67
2023-04-20T18:10:02.377Z,21.87
2023-04-20T18:12:31.386Z,16.17
2023-04-20T18:15:05.565Z,14.67
2023-04-20T18:17:38.394Z,14.90
2023-04-20T18:20:09.366Z,15.43
2023-04-20T18:22:38.890Z,22.10
2023-04-20T18:25:08.735Z,15.77
2023-04-20T18:27:44.412Z,16.83
2023-04-20T18:30:17.691Z,17.40
2023-04-20T18:32:49.254Z,15.50
2023-04-20T18:35:20.371Z,17.00
2023-04-20T18:37:48.538Z,12.30
2023-04-20T18:40:19.381Z,17.07
2023-04-20T18:42:50.578Z,16.20
2023-04-20T18:45:21.916Z,19.30
2023-04-20T18:47:57.594Z,14.87
2023-04-20T18:50:28.950Z,18.37
2023-04-20T18:52:57.628Z,15.23
2023-04-20T18:55:30.121Z,13.90
2023-04-20T18:58:00.128Z,18.80
2023-04-20T19:00:31.127Z,20.30
2023-04-20T19:05:42.193Z,16.60
2023-04-20T19:08:13.734Z,18.23
2023-04-20T19:10:44.210Z,15.73
2023-04-20T19:13:12.860Z,21.33
2023-04-20T19:15:50.953Z,17.63
2023-04-20T19:18:24.299Z,18.90
2023-04-20T19:20:59.403Z,16.73
2023-04-20T19:23:27.474Z,18.03
2023-04-20T19:25:58.816Z,14.70
2023-04-20T19:28:33.442Z,19.70
2023-04-20T19:31:11.740Z,19.50
2023-04-20T19:33:44.760Z,19.00
2023-04-20T19:36:13.661Z,19.10
2023-04-20T19:38:43.588Z,19.20
2023-04-20T19:41:14.571Z,21.80
2023-04-20T19:43:43.393Z,18.90
2023-04-20T19:46:18.729Z,19.60
2023-04-20T19:48:49.308Z,18.33
2023-04-20T19:51:22.402Z,18.53
2023-04-20T19:54:07.941Z,20.30
2023-04-20T19:56:43.894Z,20.77
2023-04-20T19:59:22.934Z,17.13
2023-04-20T20:02:00.788Z,22.83
2023-04-20T20:04:36.044Z,18.00
2023-04-20T20:07:16.336Z,21.73
2023-04-20T20:09:45.275Z,22.97
2023-04-20T20:12:14.704Z,23.87
2023-04-20T20:14:46.092Z,22.13
2023-04-20T20:17:16.039Z,25.97
2023-04-20T20:19:47.160Z,24.30
2023-04-20T20:22:19.102Z,24.97
2023-04-20T20:24:51.549Z,28.43
2023-04-20T20:27:23.128Z,26.33
2023-04-20T20:29:55.692Z,24.63
2023-04-20T20:32:31.627Z,31.60
2023-04-20T20:35:09.891Z,25.20
2023-04-20T20:37:38.901Z,25.50
2023-04-20T20:40:16.177Z,22.63
2023-04-20T20:42:45.371Z,23.90
2023-04-20T20:45:19.795Z,24.07
2023-04-20T20:47:54.432Z,24.43
2023-04-20T20:50:31.193Z,24.20
2023-04-20T20:52:59.619Z,23.17
2023-04-20T20:55:28.376Z,26.43
2023-04-20T20:58:00.944Z,22.20
2023-04-20T21:00:35.622Z,24.70
2023-04-20T21:03:10.426Z,25.57
2023-04-20T21:05:41.206Z,26.50
2023-04-20T21:08:17.326Z,23.43
2023-04-20T21:10:48.952Z,19.70
2023-04-20T21:13:26.101Z,28.57
2023-04-20T21:16:00.067Z,19.43
2023-04-20T21:18:30.545Z,18.83
2023-04-20T21:21:10.078Z,23.70
2023-04-20T21:23:40.679Z,21.43
2023-04-20T21:26:09.446Z,18.60
2023-04-20T21:28:40.180Z,22.30
2023-04-20T21:31:09.745Z,23.97
2023-04-20T21:33:42.564Z,20.20
2023-04-20T21:36:11.218Z,21.93
2023-04-20T21:38:39.788Z,24.90
2023-04-20T21:41:10.393Z,24.33
2023-04-20T21:43:38.564Z,25.13
2023-04-20T21:46:07.025Z,23.40
2023-04-20T21:48:40.407Z,19.97
2023-04-20T21:51:08.954Z,24.33
2023-04-20T21:53:42.483Z,22.70
2023-04-20T21:56:12.206Z,21.17
2023-04-20T21:58:46.698Z,20.60
2023-04-20T22:01:18.336Z,25.07
2023-04-20T22:03:50.893Z,23.30
2023-04-20T22:06:22.911Z,20.50
2023-04-20T22:08:52.793Z,19.47
2023-04-20T22:11:21.176Z,25.53
2023-04-20T22:14:06.560Z,26.60
2023-04-20T22:16:37.495Z,25.00
2023-04-20T22:19:07.641Z,28.10
2023-04-20T22:21:38.576Z,25.40
2023-04-20T22:24:07.543Z,23.03
2023-04-20T22:26:35.956Z,22.10
2023-04-20T22:29:11.227Z,24.07
2023-04-20T22:31:41.009Z,23.33
2023-04-20T22:34:15.011Z,20.57
2023-04-20T22:36:49.113Z,22.10
2023-04-20T22:39:22.470Z,23.97
2023-04-20T22:41:53.840Z,24.37
2023-04-20T22:44:25.298Z,21.53
2023-04-20T22:46:54.337Z,22.73
2023-04-20T22:49:32.381Z,20.60
2023-04-20T22:52:00.918Z,23.67
2023-04-20T22:54:31.626Z,19.70
2023-04-20T22:57:03.724Z,21.90
2023-04-20T22:59:38.029Z,21.10
2023-04-20T23:02:09.344Z,20.40
2023-04-20T23:04:39.667Z,23.93
2023-04-20T23:07:08.987Z,21.70
2023-04-20T23:09:43.001Z,16.47
2023-04-20T23:12:12.892Z,21.27
2023-04-20T23:14:43.521Z,20.53
2023-04-20T23:17:11.931Z,24.43
2023-04-20T23:19:42.626Z,23.87
2023-04-20T23:22:12.353Z,19.07
2023-04-20T23:24:43.610Z,21.57
2023-04-20T23:27:12.251Z,19.93
2023-04-20T23:29:46.867Z,23.40
2023-04-20T23:32:18.298Z,21.93
2023-04-20T23:34:47.944Z,23.30
2023-04-20T23:37:16.407Z,23.77
2023-04-20T23:39:44.810Z,17.90
2023-04-20T23:42:16.446Z,19.03
2023-04-20T23:44:47.656Z,21.30
2023-04-20T23:47:22.723Z,18.40
2023-04-20T23:49:52.335Z,15.67
2023-04-20T23:52:20.971Z,23.83
2023-04-20T23:54:53.426Z,19.17
2023-04-20T23:57:23.119Z,12.50
2023-04-20T23:59:55.232Z,16.67
